sensor_id;sensor_type;location;lat;lon;timestamp;temperature;humidity
41944;DHT22;27636;52.610;13.244;2024-01-15T00:02:21;2.10;99.90
41944;DHT22;27636;52.610;13.244;2024-01-15T00:07:25;2.10;99.90
41944;DHT22;27636;52.610;13.244;2024-01-15T00:12:28;2.00;99.90
41944;DHT22;27636;52.610;13.244;2024-01-15T00:17:33;2.00;99.90
41944;DHT22;27636;52.610;13.244;2024-01-15T00:22:37;2.10;99.90
41944;DHT22;27636;52.610;13.244;2024-01-15T00:28:08;2.00;99.90
41944;DHT22;27636;52.610;13.244;2024-01-15T00:33:13;2.00;99.90
41944;DHT22;27636;52.610;13.244;2024-01-15T00:38:18;2.00;99.90
41944;DHT22;27636;52.610;13.244;2024-01-15T00:43:22;2.10;99.90
41944;DHT22;27636;52.610;13.244;2024-01-15T00:48:30;2.10;99.90
41944;DHT22;27636;52.610;13.244;2024-01-15T00:53:34;2.10;99.90
41944;DHT22;27636;52.610;13.244;2024-01-15T00:58:48;2.00;99.90
41944;DHT22;27636;52.610;13.244;2024-01-15T01:04:18;2.00;99.90
41944;DHT22;27636;52.610;13.244;2024-01-15T01:09:21;1.80;99.90
41944;DHT22;27636;52.610;13.244;2024-01-15T01:14:25;1.70;99.90
41944;DHT22;27636;52.610;13.244;2024-01-15T01:19:30;1.70;99.90
41944;DHT22;27636;52.610;13.244;2024-01-15T01:24:34;1.70;99.90
41944;DHT22;27636;52.610;13.244;2024-01-15T01:29:38;1.70;99.90
41944;DHT22;27636;52.610;13.244;2024-01-15T01:34:47;1.70;99.90
41944;DHT22;27636;52.610;13.244;2024-01-15T01:39:54;1.90;99.90
41944;DHT22;27636;52.610;13.244;2024-01-15T01:44:57;1.80;99.90
41944;DHT22;27636;52.610;13.244;2024-01-15T01:50:07;1.80;99.90
41944;DHT22;27636;52.610;13.244;2024-01-15T01:55:11;1.80;99.90
41944;DHT22;27636;52.610;13.244;2024-01-15T02:00:17;1.80;99.90
41944;DHT22;27636;52.610;13.244;2024-01-15T02:05:22;1.70;99.90
41944;DHT22;27636;52.610;13.244;2024-01-15T02:10:29;1.70;99.90
41944;DHT22;27636;52.610;13.244;2024-01-15T02:15:32;1.60;99.90
41944;DHT22;27636;52.610;13.244;2024-01-15T02:20:42;1.50;99.90
41944;DHT22;27636;52.610;13.244;2024-01-15T02:25:47;1.50;99.90
41944;DHT22;27636;52.610;13.244;2024-01-15T02:30:51;1.60;99.90
41944;DHT22;27636;52.610;13.244;2024-01-15T02:36:00;1.60;99.90
41944;DHT22;27636;52.610;13.244;2024-01-15T02:41:14;1.40;99.90
41944;DHT22;27636;52.610;13.244;2024-01-15T02:46:18;1.40;99.90
41944;DHT22;27636;52.610;13.244;2024-01-15T02:51:22;1.50;99.90
41944;DHT22;27636;52.610;13.244;2024-01-15T02:56:27;1.60;99.90
41944;DHT22;27636;52.610;13.244;2024-01-15T03:01:30;1.60;99.90
41944;DHT22;27636;52.610;13.244;2024-01-15T03:06:36;1.60;99.90
41944;DHT22;27636;52.610;13.244;2024-01-15T03:11:41;1.80;99.90
41944;DHT22;27636;52.610;13.244;2024-01-15T03:16:45;1.70;99.90
41944;DHT22;27636;52.610;13.244;2024-01-15T03:21:49;1.70;99.90
41944;DHT22;27636;52.610;13.244;2024-01-15T03:26:55;1.80;99.90
41944;DHT22;27636;52.610;13.244;2024-01-15T03:32:00;1.90;99.90
41944;DHT22;27636;52.610;13.244;2024-01-15T03:37:03;1.90;99.90
41944;DHT22;27636;52.610;13.244;2024-01-15T03:42:09;1.80;99.90
41944;DHT22;27636;52.610;13.244;2024-01-15T03:47:13;1.80;99.90
41944;DHT22;27636;52.610;13.244;2024-01-15T03:52:16;1.90;99.90
41944;DHT22;27636;52.610;13.244;2024-01-15T03:57:21;1.90;99.90
41944;DHT22;27636;52.610;13.244;2024-01-15T04:02:25;1.90;99.90
41944;DHT22;27636;52.610;13.244;2024-01-15T04:07:29;2.10;99.90
41944;DHT22;27636;52.610;13.244;2024-01-15T04:12:33;1.90;99.90
41944;DHT22;27636;52.610;13.244;2024-01-15T04:17:37;1.90;99.90
41944;DHT22;27636;52.610;13.244;2024-01-15T04:22:41;2.00;99.90
41944;DHT22;27636;52.610;13.244;2024-01-15T04:27:46;2.00;99.90
41944;DHT22;27636;52.610;13.244;2024-01-15T04:32:49;1.90;99.90
41944;DHT22;27636;52.610;13.244;2024-01-15T04:37:53;1.90;99.90
41944;DHT22;27636;52.610;13.244;2024-01-15T04:42:58;2.00;99.90
41944;DHT22;27636;52.610;13.244;2024-01-15T04:48:10;2.00;99.90
41944;DHT22;27636;52.610;13.244;2024-01-15T04:53:14;2.00;99.90
41944;DHT22;27636;52.610;13.244;2024-01-15T04:58:24;2.10;99.90
41944;DHT22;27636;52.610;13.244;2024-01-15T05:03:45;2.10;99.90
41944;DHT22;27636;52.610;13.244;2024-01-15T05:08:49;2.10;99.90
41944;DHT22;27636;52.610;13.244;2024-01-15T05:13:54;2.10;99.90
41944;DHT22;27636;52.610;13.244;2024-01-15T05:18:58;2.20;99.90
41944;DHT22;27636;52.610;13.244;2024-01-15T05:24:02;2.10;99.90
41944;DHT22;27636;52.610;13.244;2024-01-15T05:29:07;1.90;99.90
41944;DHT22;27636;52.610;13.244;2024-01-15T05:34:11;2.00;99.90
41944;DHT22;27636;52.610;13.244;2024-01-15T05:39:14;2.00;99.90
41944;DHT22;27636;52.610;13.244;2024-01-15T05:44:20;2.10;99.90
41944;DHT22;27636;52.610;13.244;2024-01-15T05:49:23;2.20;99.90
41944;DHT22;27636;52.610;13.244;2024-01-15T05:54:29;2.10;99.90
41944;DHT22;27636;52.610;13.244;2024-01-15T05:59:34;2.20;99.90
41944;DHT22;27636;52.610;13.244;2024-01-15T06:04:46;2.20;99.90
41944;DHT22;27636;52.610;13.244;2024-01-15T06:09:55;2.20;99.90
41944;DHT22;27636;52.610;13.244;2024-01-15T06:15:02;2.20;99.90
41944;DHT22;27636;52.610;13.244;2024-01-15T06:20:07;2.20;99.90
41944;DHT22;27636;52.610;13.244;2024-01-15T06:25:13;2.40;99.90
41944;DHT22;27636;52.610;13.244;2024-01-15T06:30:23;2.30;99.90
41944;DHT22;27636;52.610;13.244;2024-01-15T06:35:28;2.30;99.90
41944;DHT22;27636;52.610;13.244;2024-01-15T06:40:40;2.30;99.90
41944;DHT22;27636;52.610;13.244;2024-01-15T06:45:53;2.40;99.90
41944;DHT22;27636;52.610;13.244;2024-01-15T06:50:57;2.30;99.90
41944;DHT22;27636;52.610;13.244;2024-01-15T06:56:04;2.30;99.90
41944;DHT22;27636;52.610;13.244;2024-01-15T07:01:18;2.30;99.90
41944;DHT22;27636;52.610;13.244;2024-01-15T07:06:24;2.30;99.90
41944;DHT22;27636;52.610;13.244;2024-01-15T07:11:30;2.30;99.90
41944;DHT22;27636;52.610;13.244;2024-01-15T07:16:35;2.30;99.90
41944;DHT22;27636;52.610;13.244;2024-01-15T07:21:41;2.20;99.90
41944;DHT22;27636;52.610;13.244;2024-01-15T07:26:48;2.20;99.90
41944;DHT22;27636;52.610;13.244;2024-01-15T07:31:54;2.20;99.90
41944;DHT22;27636;52.610;13.244;2024-01-15T07:36:58;2.30;99.90
41944;DHT22;27636;52.610;13.244;2024-01-15T07:42:05;2.30;99.90
41944;DHT22;27636;52.610;13.244;2024-01-15T07:47:10;2.40;99.90
41944;DHT22;27636;52.610;13.244;2024-01-15T07:52:35;2.50;99.90
41944;DHT22;27636;52.610;13.244;2024-01-15T07:57:39;2.40;99.90
41944;DHT22;27636;52.610;13.244;2024-01-15T08:02:45;2.40;99.90
41944;DHT22;27636;52.610;13.244;2024-01-15T08:07:49;2.50;99.90
41944;DHT22;27636;52.610;13.244;2024-01-15T08:12:52;2.70;99.90
41944;DHT22;27636;52.610;13.244;2024-01-15T08:17:57;2.50;99.90
41944;DHT22;27636;52.610;13.244;2024-01-15T08:23:02;2.50;99.90
41944;DHT22;27636;52.610;13.244;2024-01-15T08:28:12;2.60;99.90
41944;DHT22;27636;52.610;13.244;2024-01-15T08:33:17;2.60;99.90
41944;DHT22;27636;52.610;13.244;2024-01-15T08:38:25;2.60;99.90
41944;DHT22;27636;52.610;13.244;2024-01-15T08:43:28;2.70;99.90
41944;DHT22;27636;52.610;13.244;2024-01-15T08:48:36;2.80;99.90
41944;DHT22;27636;52.610;13.244;2024-01-15T08:53:40;2.70;99.90
41944;DHT22;27636;52.610;13.244;2024-01-15T08:58:44;2.70;99.90
41944;DHT22;27636;52.610;13.244;2024-01-15T09:03:51;2.70;99.90
41944;DHT22;27636;52.610;13.244;2024-01-15T09:08:55;2.70;99.90
41944;DHT22;27636;52.610;13.244;2024-01-15T09:13:58;2.70;99.90
41944;DHT22;27636;52.610;13.244;2024-01-15T09:19:03;2.70;99.90
41944;DHT22;27636;52.610;13.244;2024-01-15T09:24:07;2.80;99.90
41944;DHT22;27636;52.610;13.244;2024-01-15T09:29:12;2.90;99.90
41944;DHT22;27636;52.610;13.244;2024-01-15T09:34:22;3.00;99.90
41944;DHT22;27636;52.610;13.244;2024-01-15T09:39:27;3.10;99.90
41944;DHT22;27636;52.610;13.244;2024-01-15T09:44:31;3.30;99.90
41944;DHT22;27636;52.610;13.244;2024-01-15T09:49:37;3.30;99.90
41944;DHT22;27636;52.610;13.244;2024-01-15T09:54:43;3.60;99.90
41944;DHT22;27636;52.610;13.244;2024-01-15T09:59:52;3.60;99.90
41944;DHT22;27636;52.610;13.244;2024-01-15T10:05:00;3.60;99.90
41944;DHT22;27636;52.610;13.244;2024-01-15T10:10:05;3.80;99.90
41944;DHT22;27636;52.610;13.244;2024-01-15T10:15:12;3.80;99.90
41944;DHT22;27636;52.610;13.244;2024-01-15T10:20:18;3.80;99.90
41944;DHT22;27636;52.610;13.244;2024-01-15T10:25:22;3.80;99.90
41944;DHT22;27636;52.610;13.244;2024-01-15T10:30:30;3.80;99.90
41944;DHT22;27636;52.610;13.244;2024-01-15T10:35:35;3.60;99.90
41944;DHT22;27636;52.610;13.244;2024-01-15T10:40:39;3.40;99.90
41944;DHT22;27636;52.610;13.244;2024-01-15T10:45:43;3.30;99.90
41944;DHT22;27636;52.610;13.244;2024-01-15T10:50:49;3.40;99.90
41944;DHT22;27636;52.610;13.244;2024-01-15T10:55:53;3.60;99.90
41944;DHT22;27636;52.610;13.244;2024-01-15T11:00:58;3.70;99.90
41944;DHT22;27636;52.610;13.244;2024-01-15T11:06:16;3.80;99.90
41944;DHT22;27636;52.610;13.244;2024-01-15T11:11:21;3.90;99.90
41944;DHT22;27636;52.610;13.244;2024-01-15T11:16:55;3.60;99.90
41944;DHT22;27636;52.610;13.244;2024-01-15T11:22:09;3.70;99.90
41944;DHT22;27636;52.610;13.244;2024-01-15T11:27:13;3.90;99.90
41944;DHT22;27636;52.610;13.244;2024-01-15T11:32:17;3.70;99.90
41944;DHT22;27636;52.610;13.244;2024-01-15T11:37:25;3.60;99.90
41944;DHT22;27636;52.610;13.244;2024-01-15T11:42:30;3.50;99.90
41944;DHT22;27636;52.610;13.244;2024-01-15T11:48:09;3.20;99.90
41944;DHT22;27636;52.610;13.244;2024-01-15T11:53:33;2.90;99.90
41944;DHT22;27636;52.610;13.244;2024-01-15T11:58:43;2.70;99.90
41944;DHT22;27636;52.610;13.244;2024-01-15T12:03:47;2.60;99.90
41944;DHT22;27636;52.610;13.244;2024-01-15T12:09:05;2.60;99.90
41944;DHT22;27636;52.610;13.244;2024-01-15T12:14:10;2.70;99.90
41944;DHT22;27636;52.610;13.244;2024-01-15T12:19:19;2.60;99.90
41944;DHT22;27636;52.610;13.244;2024-01-15T12:24:25;2.70;99.90
41944;DHT22;27636;52.610;13.244;2024-01-15T12:29:29;2.70;99.90
41944;DHT22;27636;52.610;13.244;2024-01-15T12:34:34;2.70;99.90
41944;DHT22;27636;52.610;13.244;2024-01-15T12:39:42;2.70;99.90
41944;DHT22;27636;52.610;13.244;2024-01-15T12:44:49;2.50;99.90
41944;DHT22;27636;52.610;13.244;2024-01-15T12:49:53;2.50;99.90
41944;DHT22;27636;52.610;13.244;2024-01-15T12:55:10;2.50;99.90
41944;DHT22;27636;52.610;13.244;2024-01-15T13:00:15;2.60;99.90
41944;DHT22;27636;52.610;13.244;2024-01-15T13:05:19;2.70;99.90
41944;DHT22;27636;52.610;13.244;2024-01-15T13:10:25;2.80;99.90
41944;DHT22;27636;52.610;13.244;2024-01-15T13:15:29;2.70;99.90
41944;DHT22;27636;52.610;13.244;2024-01-15T13:20:35;2.70;99.90
41944;DHT22;27636;52.610;13.244;2024-01-15T13:25:42;2.80;99.90
41944;DHT22;27636;52.610;13.244;2024-01-15T13:30:48;2.80;99.90
41944;DHT22;27636;52.610;13.244;2024-01-15T13:35:54;2.70;99.90
41944;DHT22;27636;52.610;13.244;2024-01-15T13:40:59;2.60;99.90
41944;DHT22;27636;52.610;13.244;2024-01-15T13:46:04;2.60;99.90
41944;DHT22;27636;52.610;13.244;2024-01-15T13:51:10;2.70;99.90
41944;DHT22;27636;52.610;13.244;2024-01-15T13:56:16;2.70;99.90
41944;DHT22;27636;52.610;13.244;2024-01-15T14:01:24;2.70;99.90
41944;DHT22;27636;52.610;13.244;2024-01-15T14:06:28;2.70;99.90
41944;DHT22;27636;52.610;13.244;2024-01-15T14:11:33;2.70;99.90
41944;DHT22;27636;52.610;13.244;2024-01-15T14:16:37;2.70;99.90
41944;DHT22;27636;52.610;13.244;2024-01-15T14:21:41;2.70;99.90
41944;DHT22;27636;52.610;13.244;2024-01-15T14:26:46;2.60;99.90
41944;DHT22;27636;52.610;13.244;2024-01-15T14:37:45;2.60;99.90
41944;DHT22;27636;52.610;13.244;2024-01-15T14:42:54;2.50;99.90
41944;DHT22;27636;52.610;13.244;2024-01-15T14:47:58;2.50;99.90
41944;DHT22;27636;52.610;13.244;2024-01-15T14:53:05;2.50;99.90
41944;DHT22;27636;52.610;13.244;2024-01-15T14:58:10;2.50;99.90
41944;DHT22;27636;52.610;13.244;2024-01-15T15:03:15;2.40;99.90
41944;DHT22;27636;52.610;13.244;2024-01-15T15:08:21;2.30;99.90
41944;DHT22;27636;52.610;13.244;2024-01-15T15:13:26;2.20;99.90
41944;DHT22;27636;52.610;13.244;2024-01-15T15:18:47;2.00;99.90
41944;DHT22;27636;52.610;13.244;2024-01-15T15:23:51;2.00;99.90
41944;DHT22;27636;52.610;13.244;2024-01-15T15:28:56;1.90;99.90
41944;DHT22;27636;52.610;13.244;2024-01-15T15:34:00;1.80;99.90
41944;DHT22;27636;52.610;13.244;2024-01-15T15:39:04;1.80;99.90
41944;DHT22;27636;52.610;13.244;2024-01-15T15:44:10;1.70;99.90
41944;DHT22;27636;52.610;13.244;2024-01-15T15:49:16;1.70;99.90
41944;DHT22;27636;52.610;13.244;2024-01-15T15:54:21;1.60;99.90
41944;DHT22;27636;52.610;13.244;2024-01-15T15:59:26;1.60;99.90
41944;DHT22;27636;52.610;13.244;2024-01-15T16:04:30;1.70;99.90
41944;DHT22;27636;52.610;13.244;2024-01-15T16:09:35;1.60;99.90
41944;DHT22;27636;52.610;13.244;2024-01-15T16:14:40;1.50;99.90
41944;DHT22;27636;52.610;13.244;2024-01-15T16:19:44;1.30;99.90
41944;DHT22;27636;52.610;13.244;2024-01-15T16:25:09;1.30;99.90
41944;DHT22;27636;52.610;13.244;2024-01-15T16:30:17;1.30;99.90
41944;DHT22;27636;52.610;13.244;2024-01-15T16:35:36;1.30;99.90
41944;DHT22;27636;52.610;13.244;2024-01-15T16:40:40;1.20;99.90
41944;DHT22;27636;52.610;13.244;2024-01-15T16:45:45;1.10;99.90
41944;DHT22;27636;52.610;13.244;2024-01-15T16:50:49;1.10;99.90
41944;DHT22;27636;52.610;13.244;2024-01-15T16:55:53;1.20;99.90
41944;DHT22;27636;52.610;13.244;2024-01-15T17:00:58;1.00;99.90
41944;DHT22;27636;52.610;13.244;2024-01-15T17:06:02;1.00;99.90
41944;DHT22;27636;52.610;13.244;2024-01-15T17:11:06;1.10;99.90
41944;DHT22;27636;52.610;13.244;2024-01-15T17:16:12;1.00;99.90
41944;DHT22;27636;52.610;13.244;2024-01-15T17:21:16;0.90;99.90
41944;DHT22;27636;52.610;13.244;2024-01-15T17:26:20;0.90;99.90
41944;DHT22;27636;52.610;13.244;2024-01-15T17:31:25;0.80;99.90
41944;DHT22;27636;52.610;13.244;2024-01-15T17:36:30;0.80;99.90
41944;DHT22;27636;52.610;13.244;2024-01-15T17:41:35;0.90;99.90
41944;DHT22;27636;52.610;13.244;2024-01-15T17:46:40;1.00;99.90
41944;DHT22;27636;52.610;13.244;2024-01-15T17:51:45;1.10;99.90
41944;DHT22;27636;52.610;13.244;2024-01-15T17:56:51;1.10;99.90
41944;DHT22;27636;52.610;13.244;2024-01-15T18:01:57;1.10;99.90
41944;DHT22;27636;52.610;13.244;2024-01-15T18:07:01;1.00;99.90
41944;DHT22;27636;52.610;13.244;2024-01-15T18:12:06;1.20;99.90
41944;DHT22;27636;52.610;13.244;2024-01-15T18:17:11;1.20;99.90
41944;DHT22;27636;52.610;13.244;2024-01-15T18:22:15;0.90;99.90
41944;DHT22;27636;52.610;13.244;2024-01-15T18:27:19;0.60;99.90
41944;DHT22;27636;52.610;13.244;2024-01-15T18:32:25;0.40;99.90
41944;DHT22;27636;52.610;13.244;2024-01-15T18:37:30;0.10;99.90
41944;DHT22;27636;52.610;13.244;2024-01-15T18:42:34;0.00;99.90
41944;DHT22;27636;52.610;13.244;2024-01-15T18:47:39;0.10;99.90
41944;DHT22;27636;52.610;13.244;2024-01-15T19:00:16;0.20;99.90
41944;DHT22;27636;52.610;13.244;2024-01-15T19:05:21;0.30;99.90
41944;DHT22;27636;52.610;13.244;2024-01-15T19:10:26;0.50;99.90
41944;DHT22;27636;52.610;13.244;2024-01-15T19:15:30;0.50;99.90
41944;DHT22;27636;52.610;13.244;2024-01-15T19:20:35;0.50;99.90
41944;DHT22;27636;52.610;13.244;2024-01-15T19:25:39;0.50;99.90
41944;DHT22;27636;52.610;13.244;2024-01-15T19:30:43;0.40;99.90
41944;DHT22;27636;52.610;13.244;2024-01-15T19:35:48;0.20;99.90
41944;DHT22;27636;52.610;13.244;2024-01-15T19:40:52;0.10;99.90
41944;DHT22;27636;52.610;13.244;2024-01-15T19:45:56;-0.10;99.90
41944;DHT22;27636;52.610;13.244;2024-01-15T19:51:02;0.10;99.90
41944;DHT22;27636;52.610;13.244;2024-01-15T19:56:06;0.10;99.90
41944;DHT22;27636;52.610;13.244;2024-01-15T20:01:10;0.20;99.90
41944;DHT22;27636;52.610;13.244;2024-01-15T20:06:15;0.40;99.90
41944;DHT22;27636;52.610;13.244;2024-01-15T20:11:20;0.20;99.90
41944;DHT22;27636;52.610;13.244;2024-01-15T20:16:24;0.20;99.90
41944;DHT22;27636;52.610;13.244;2024-01-15T20:21:30;0.30;99.90
41944;DHT22;27636;52.610;13.244;2024-01-15T20:26:34;0.50;99.90
41944;DHT22;27636;52.610;13.244;2024-01-15T20:31:38;0.40;99.90
41944;DHT22;27636;52.610;13.244;2024-01-15T20:36:43;0.50;99.90
41944;DHT22;27636;52.610;13.244;2024-01-15T20:41:48;0.40;99.90
41944;DHT22;27636;52.610;13.244;2024-01-15T20:46:53;0.30;99.90
41944;DHT22;27636;52.610;13.244;2024-01-15T20:51:58;0.30;99.90
41944;DHT22;27636;52.610;13.244;2024-01-15T20:57:03;0.40;99.90
41944;DHT22;27636;52.610;13.244;2024-01-15T21:02:07;0.30;99.90
41944;DHT22;27636;52.610;13.244;2024-01-15T21:07:13;0.30;99.90
41944;DHT22;27636;52.610;13.244;2024-01-15T21:12:17;0.50;99.90
41944;DHT22;27636;52.610;13.244;2024-01-15T21:17:21;0.40;99.90
41944;DHT22;27636;52.610;13.244;2024-01-15T21:22:27;0.30;99.90
41944;DHT22;27636;52.610;13.244;2024-01-15T21:27:32;0.40;99.90
41944;DHT22;27636;52.610;13.244;2024-01-15T21:32:36;0.40;99.90
41944;DHT22;27636;52.610;13.244;2024-01-15T21:37:42;0.40;99.90
41944;DHT22;27636;52.610;13.244;2024-01-15T21:42:46;0.30;99.90
41944;DHT22;27636;52.610;13.244;2024-01-15T21:47:50;0.30;99.90
41944;DHT22;27636;52.610;13.244;2024-01-15T21:52:55;0.40;99.90
41944;DHT22;27636;52.610;13.244;2024-01-15T21:57:59;0.20;99.90
41944;DHT22;27636;52.610;13.244;2024-01-15T22:03:04;0.00;99.90
41944;DHT22;27636;52.610;13.244;2024-01-15T22:08:10;-0.10;99.90
41944;DHT22;27636;52.610;13.244;2024-01-15T22:13:16;-0.30;99.90
41944;DHT22;27636;52.610;13.244;2024-01-15T22:18:20;-0.30;99.90
41944;DHT22;27636;52.610;13.244;2024-01-15T22:23:25;-0.40;99.90
41944;DHT22;27636;52.610;13.244;2024-01-15T22:28:29;-0.40;99.90
41944;DHT22;27636;52.610;13.244;2024-01-15T22:33:33;-0.40;99.90
41944;DHT22;27636;52.610;13.244;2024-01-15T22:38:39;-0.40;99.90
41944;DHT22;27636;52.610;13.244;2024-01-15T22:43:43;-0.40;99.90
41944;DHT22;27636;52.610;13.244;2024-01-15T22:48:47;-0.40;99.90
41944;DHT22;27636;52.610;13.244;2024-01-15T22:53:52;-0.40;99.90
41944;DHT22;27636;52.610;13.244;2024-01-15T22:58:57;-0.30;99.90
41944;DHT22;27636;52.610;13.244;2024-01-15T23:04:01;-0.30;99.90
41944;DHT22;27636;52.610;13.244;2024-01-15T23:09:07;-0.30;99.90
41944;DHT22;27636;52.610;13.244;2024-01-15T23:14:12;-0.10;99.90
41944;DHT22;27636;52.610;13.244;2024-01-15T23:19:17;-0.10;99.90
41944;DHT22;27636;52.610;13.244;2024-01-15T23:24:22;-0.20;99.90
41944;DHT22;27636;52.610;13.244;2024-01-15T23:29:27;-0.10;99.90
41944;DHT22;27636;52.610;13.244;2024-01-15T23:34:30;-0.10;99.90
41944;DHT22;27636;52.610;13.244;2024-01-15T23:39:36;-0.10;99.90
41944;DHT22;27636;52.610;13.244;2024-01-15T23:44:39;-0.10;99.90
41944;DHT22;27636;52.610;13.244;2024-01-15T23:49:43;0.00;99.90
41944;DHT22;27636;52.610;13.244;2024-01-15T23:54:49;0.10;99.90
41944;DHT22;27636;52.610;13.244;2024-01-15T23:59:53;-0.10;99.90
